createdAt,value
2023-05-13T00:00:01.441Z,10.3
2023-05-13T00:01:02.022Z,10.3
2023-05-13T00:02:01.604Z,10.2
2023-05-13T00:03:01.276Z,10.3
2023-05-13T00:04:01.786Z,10.3
2023-05-13T00:05:01.499Z,10.3
2023-05-13T00:06:02.049Z,10.2
2023-05-13T00:07:01.652Z,10.3
2023-05-13T00:08:01.260Z,10.2
2023-05-13T00:09:01.799Z,10.2
2023-05-13T00:10:01.398Z,10.2
2023-05-13T00:11:01.969Z,10.2
2023-05-13T00:12:01.559Z,10.1
2023-05-13T00:13:01.161Z,10
2023-05-13T00:14:01.720Z,10
2023-05-13T00:15:01.369Z,10
2023-05-13T00:16:01.940Z,10
2023-05-13T00:17:01.559Z,10
2023-05-13T00:18:01.303Z,10
2023-05-13T00:19:01.753Z,9.9
2023-05-13T00:20:01.368Z,10
2023-05-13T00:21:01.973Z,9.9
2023-05-13T00:22:01.560Z,10
2023-05-13T00:23:01.176Z,9.9
2023-05-13T00:24:01.721Z,9.9
2023-05-13T00:25:01.328Z,10
2023-05-13T00:26:01.915Z,9.9
2023-05-13T00:27:01.505Z,10
2023-05-13T00:28:01.130Z,10
2023-05-13T00:29:01.673Z,10.1
2023-05-13T00:30:01.263Z,10.1
2023-05-13T00:31:01.850Z,10
2023-05-13T00:32:01.538Z,10
2023-05-13T00:33:02.167Z,10.1
2023-05-13T00:34:01.783Z,10
2023-05-13T00:35:01.247Z,10
2023-05-13T00:36:01.813Z,9.9
2023-05-13T00:37:01.425Z,9.9
2023-05-13T00:38:02.012Z,9.9
2023-05-13T00:39:01.607Z,9.9
2023-05-13T00:40:01.213Z,9.9
2023-05-13T00:41:01.769Z,9.9
2023-05-13T00:42:01.358Z,9.9
2023-05-13T00:43:01.956Z,9.9
2023-05-13T00:44:01.553Z,9.9
2023-05-13T00:45:01.128Z,9.9
2023-05-13T00:46:01.761Z,9.9
2023-05-13T00:47:01.361Z,9.8
2023-05-13T00:48:02.061Z,9.8
2023-05-13T00:49:01.604Z,9.9
2023-05-13T00:50:01.201Z,9.8
2023-05-13T00:51:01.763Z,9.8
2023-05-13T00:52:01.367Z,9.8
2023-05-13T00:53:01.990Z,9.8
2023-05-13T00:54:01.577Z,9.7
2023-05-13T00:55:01.172Z,9.8
2023-05-13T00:56:01.748Z,9.8
2023-05-13T00:57:01.338Z,9.8
2023-05-13T00:58:01.949Z,9.8
2023-05-13T00:59:01.560Z,9.8
2023-05-13T01:00:01.127Z,9.8
2023-05-13T01:01:01.725Z,9.7
2023-05-13T01:02:01.365Z,9.7
2023-05-13T01:03:01.944Z,9.6
2023-05-13T01:04:01.604Z,9.6
2023-05-13T01:05:01.150Z,9.6
2023-05-13T01:06:01.732Z,9.6
2023-05-13T01:07:01.319Z,9.6
2023-05-13T01:08:01.888Z,9.6
2023-05-13T01:09:01.521Z,9.6
2023-05-13T01:10:02.059Z,9.6
2023-05-13T01:11:01.646Z,9.6
2023-05-13T01:12:01.241Z,9.6
2023-05-13T01:13:01.816Z,9.6
2023-05-13T01:14:01.425Z,9.6
2023-05-13T01:15:01.998Z,9.5
2023-05-13T01:16:01.607Z,9.5
2023-05-13T01:17:01.170Z,9.5
2023-05-13T01:18:01.833Z,9.4
2023-05-13T01:19:01.417Z,9.4
2023-05-13T01:20:01.993Z,9.5
2023-05-13T01:21:01.602Z,9.4
2023-05-13T01:22:01.199Z,9.4
2023-05-13T01:23:01.789Z,9.4
2023-05-13T01:24:01.404Z,9.5
2023-05-13T01:25:02.004Z,9.5
2023-05-13T01:26:01.636Z,9.4
2023-05-13T01:27:01.228Z,9.4
2023-05-13T01:28:01.819Z,9.5
2023-05-13T01:29:01.432Z,9.4
2023-05-13T01:30:02.014Z,9.4
2023-05-13T01:31:01.642Z,9.3
2023-05-13T01:32:01.279Z,9.3
2023-05-13T01:33:01.908Z,9.2
2023-05-13T01:34:01.494Z,9.2
2023-05-13T01:35:01.082Z,9.2
2023-05-13T01:36:01.665Z,9.2
2023-05-13T01:37:01.294Z,9.2
2023-05-13T01:38:01.860Z,9.2
2023-05-13T01:39:01.452Z,9.2
2023-05-13T01:40:02.986Z,9.2
2023-05-13T01:41:01.586Z,9.2
2023-05-13T01:42:01.172Z,9.2
2023-05-13T01:43:01.776Z,9.1
2023-05-13T01:44:01.360Z,9.1
2023-05-13T01:45:01.947Z,9.1
2023-05-13T01:46:01.595Z,9.1
2023-05-13T01:47:01.124Z,9.1
2023-05-13T01:48:01.740Z,9.1
2023-05-13T01:49:01.361Z,9.2
2023-05-13T01:50:01.938Z,9.3
2023-05-13T01:51:01.525Z,9.3
2023-05-13T01:52:01.116Z,9.1
2023-05-13T01:53:01.719Z,9.1
2023-05-13T01:54:01.312Z,9.1
2023-05-13T01:55:01.907Z,9.2
2023-05-13T01:56:01.511Z,9.2
2023-05-13T01:57:01.119Z,9.2
2023-05-13T01:58:01.706Z,9.3
2023-05-13T01:59:01.291Z,9.2
2023-05-13T02:00:01.903Z,9.2
2023-05-13T02:01:01.540Z,9.2
2023-05-13T02:02:01.152Z,9.1
2023-05-13T02:03:01.778Z,9.1
2023-05-13T02:04:01.449Z,9.2
2023-05-13T02:05:01.952Z,9.1
2023-05-13T02:06:01.545Z,9.2
2023-05-13T02:07:01.134Z,9.2
2023-05-13T02:08:01.732Z,9.1
2023-05-13T02:09:01.330Z,9.2
2023-05-13T02:10:01.888Z,9.1
2023-05-13T02:11:01.482Z,9.1
2023-05-13T02:12:02.061Z,9.1
2023-05-13T02:13:01.715Z,9
2023-05-13T02:14:01.313Z,9
2023-05-13T02:15:01.927Z,9
2023-05-13T02:16:01.533Z,9
2023-05-13T02:17:01.120Z,9.1
2023-05-13T02:18:01.751Z,9
2023-05-13T02:19:01.453Z,9.1
2023-05-13T02:20:01.928Z,9.1
2023-05-13T02:21:01.531Z,9
2023-05-13T02:22:02.082Z,9.1
2023-05-13T02:23:01.697Z,9.1
2023-05-13T02:24:01.284Z,9
2023-05-13T02:25:01.892Z,9
2023-05-13T02:26:01.499Z,9.1
2023-05-13T02:27:02.057Z,9.1
2023-05-13T02:28:01.653Z,9.1
2023-05-13T02:29:01.262Z,9.3
2023-05-13T02:30:01.878Z,9
2023-05-13T02:31:01.477Z,9.1
2023-05-13T02:32:02.071Z,9.1
2023-05-13T02:33:01.741Z,9.1
2023-05-13T02:34:01.277Z,9.1
2023-05-13T02:35:01.884Z,9.1
2023-05-13T02:36:01.468Z,9.1
2023-05-13T02:37:02.059Z,9.1
2023-05-13T02:38:01.656Z,8.9
2023-05-13T02:39:01.263Z,9
2023-05-13T02:40:01.862Z,8.9
2023-05-13T02:41:01.494Z,8.9
2023-05-13T02:42:02.040Z,8.9
2023-05-13T02:43:01.629Z,8.9
2023-05-13T02:44:01.227Z,8.9
2023-05-13T02:45:01.824Z,8.9
2023-05-13T02:46:01.523Z,8.9
2023-05-13T02:47:02.000Z,8.9
2023-05-13T02:48:01.604Z,8.9
2023-05-13T02:49:01.159Z,8.9
2023-05-13T02:50:01.739Z,8.9
2023-05-13T02:51:01.368Z,8.9
2023-05-13T02:52:01.950Z,9
2023-05-13T02:53:01.542Z,8.9
2023-05-13T02:54:01.131Z,8.9
2023-05-13T02:55:01.765Z,8.8
2023-05-13T02:56:01.368Z,8.8
2023-05-13T02:57:01.989Z,8.7
2023-05-13T02:58:01.603Z,8.7
2023-05-13T02:59:01.173Z,8.8
2023-05-13T03:00:01.755Z,8.9
2023-05-13T03:01:01.398Z,8.9
2023-05-13T03:02:01.956Z,8.9
2023-05-13T03:03:01.626Z,8.9
2023-05-13T03:04:01.127Z,9
2023-05-13T03:05:01.718Z,9.1
2023-05-13T03:06:01.315Z,9
2023-05-13T03:07:01.923Z,9.1
2023-05-13T03:08:01.517Z,9.1
2023-05-13T03:09:01.110Z,9
2023-05-13T03:10:01.688Z,8.9
2023-05-13T03:11:01.300Z,8.9
2023-05-13T03:12:01.894Z,8.9
2023-05-13T03:13:01.496Z,8.8
2023-05-13T03:14:02.069Z,8.8
2023-05-13T03:15:01.678Z,8.8
2023-05-13T03:16:01.317Z,8.8
2023-05-13T03:17:01.881Z,8.8
2023-05-13T03:18:01.612Z,8.8
2023-05-13T03:19:02.098Z,9
2023-05-13T03:20:01.754Z,9
2023-05-13T03:21:01.278Z,8.9
2023-05-13T03:22:01.864Z,8.9
2023-05-13T03:23:01.478Z,8.9
2023-05-13T03:24:02.036Z,8.8
2023-05-13T03:25:01.634Z,8.8
2023-05-13T03:26:01.220Z,8.8
2023-05-13T03:27:01.807Z,8.7
2023-05-13T03:28:01.417Z,8.8
2023-05-13T03:29:01.984Z,8.8
2023-05-13T03:30:01.581Z,8.8
2023-05-13T03:31:01.213Z,8.7
2023-05-13T03:32:01.750Z,8.6
2023-05-13T03:33:01.407Z,8.6
2023-05-13T03:34:01.947Z,8.6
2023-05-13T03:35:01.542Z,8.6
2023-05-13T03:36:01.128Z,8.6
2023-05-13T03:37:01.701Z,8.6
2023-05-13T03:38:01.290Z,8.6
2023-05-13T03:39:01.895Z,8.7
2023-05-13T03:40:01.487Z,8.8
2023-05-13T03:41:02.068Z,8.7
2023-05-13T03:42:01.660Z,8.9
2023-05-13T03:43:01.265Z,8.8
2023-05-13T03:44:01.831Z,8.8
2023-05-13T03:45:01.422Z,8.8
2023-05-13T03:46:02.004Z,8.8
2023-05-13T03:47:01.629Z,8.8
2023-05-13T03:48:01.283Z,8.8
2023-05-13T03:49:01.822Z,8.8
2023-05-13T03:50:01.418Z,8.8
2023-05-13T03:51:02.012Z,8.8
2023-05-13T03:52:01.612Z,8.9
2023-05-13T03:53:01.197Z,8.9
2023-05-13T03:54:01.767Z,8.9
2023-05-13T03:55:01.388Z,9
2023-05-13T03:56:01.957Z,9
2023-05-13T03:57:01.546Z,9
2023-05-13T03:58:01.137Z,9
2023-05-13T03:59:01.713Z,9
2023-05-13T04:00:01.317Z,8.9
2023-05-13T04:01:01.900Z,9
2023-05-13T04:02:01.533Z,9
2023-05-13T04:03:02.120Z,9.1
2023-05-13T04:04:01.723Z,9.1
2023-05-13T04:05:01.372Z,9
2023-05-13T04:06:01.906Z,9.1
2023-05-13T04:07:01.513Z,9.1
2023-05-13T04:08:02.098Z,9.2
2023-05-13T04:09:01.700Z,9.4
2023-05-13T04:10:01.296Z,9.2
2023-05-13T04:11:01.903Z,9.4
2023-05-13T04:12:01.514Z,9.5
2023-05-13T04:13:02.102Z,9.5
2023-05-13T04:14:01.704Z,9.4
2023-05-13T04:15:01.306Z,9.5
2023-05-13T04:16:01.913Z,9.5
2023-05-13T04:17:01.543Z,9.6
2023-05-13T04:18:02.108Z,9.7
2023-05-13T04:19:01.778Z,9.8
2023-05-13T04:20:01.401Z,9.7
2023-05-13T04:21:01.948Z,9.7
2023-05-13T04:22:01.544Z,9.8
2023-05-13T04:23:01.118Z,9.8
2023-05-13T04:24:01.717Z,9.9
2023-05-13T04:25:01.303Z,9.9
2023-05-13T04:26:01.891Z,9.9
2023-05-13T04:27:01.689Z,10.1
2023-05-13T04:28:02.050Z,10.2
2023-05-13T04:29:01.637Z,10.2
2023-05-13T04:30:01.246Z,10.3
2023-05-13T04:31:01.807Z,10
2023-05-13T04:32:01.414Z,10.3
2023-05-13T04:33:02.005Z,10.2
2023-05-13T04:34:01.628Z,10.3
2023-05-13T04:35:01.241Z,10.5
2023-05-13T04:36:01.802Z,10.5
2023-05-13T04:37:01.436Z,10.3
2023-05-13T04:38:01.992Z,10.4
2023-05-13T04:39:01.580Z,10.3
2023-05-13T04:40:01.183Z,10.5
2023-05-13T04:41:01.750Z,10.6
2023-05-13T04:42:01.351Z,10.5
2023-05-13T04:43:01.950Z,10.6
2023-05-13T04:44:01.552Z,10.8
2023-05-13T04:45:01.146Z,10.9
2023-05-13T04:46:01.713Z,10.9
2023-05-13T04:47:01.326Z,11
2023-05-13T04:48:01.951Z,11.1
2023-05-13T04:49:01.543Z,11.2
2023-05-13T04:50:01.112Z,11.3
2023-05-13T04:51:01.217Z,11.3
2023-05-13T04:52:01.161Z,11.2
2023-05-13T04:53:01.760Z,11.3
2023-05-13T04:54:01.347Z,11.3
2023-05-13T04:55:01.933Z,11.4
2023-05-13T04:56:01.550Z,11.6
2023-05-13T04:57:01.117Z,11.5
2023-05-13T04:58:01.701Z,11.7
2023-05-13T04:59:01.288Z,11.6
2023-05-13T05:00:01.872Z,11.7
2023-05-13T05:01:01.475Z,11.7
2023-05-13T05:02:02.111Z,11.8
2023-05-13T05:03:01.902Z,11.9
2023-05-13T05:04:01.304Z,12
2023-05-13T05:05:01.863Z,12.1
2023-05-13T05:06:01.472Z,12
2023-05-13T05:07:02.039Z,12.1
2023-05-13T05:08:01.683Z,12.2
2023-05-13T05:09:01.306Z,12.3
2023-05-13T05:10:01.915Z,12.3
2023-05-13T05:11:01.548Z,12.3
2023-05-13T05:12:02.110Z,12.3
2023-05-13T05:13:01.692Z,12.3
2023-05-13T05:14:01.282Z,12.4
2023-05-13T05:15:01.860Z,12.4
2023-05-13T05:16:01.479Z,12.4
2023-05-13T05:17:02.055Z,12.5
2023-05-13T05:18:01.918Z,12.6
2023-05-13T05:19:01.301Z,12.5
2023-05-13T05:20:01.855Z,12.5
2023-05-13T05:21:02.576Z,12.4
2023-05-13T05:22:01.256Z,12.4
2023-05-13T05:23:01.874Z,12.5
2023-05-13T05:24:01.267Z,12.6
2023-05-13T05:25:01.898Z,12.7
2023-05-13T05:26:10.857Z,12.7
2023-05-13T05:27:02.058Z,12.7
2023-05-13T05:28:01.645Z,12.7
2023-05-13T05:29:01.258Z,12.7
2023-05-13T05:30:01.830Z,12.8
2023-05-13T05:31:01.428Z,12.8
2023-05-13T05:32:02.132Z,12.8
2023-05-13T05:33:01.714Z,12.8
2023-05-13T05:34:01.262Z,12.8
2023-05-13T05:35:01.806Z,12.8
2023-05-13T05:36:01.393Z,12.8
2023-05-13T05:37:01.977Z,12.8
2023-05-13T05:38:01.562Z,12.8
2023-05-13T05:39:01.160Z,12.8
2023-05-13T05:40:01.752Z,12.9
2023-05-13T05:41:01.372Z,13
2023-05-13T05:42:01.933Z,13.1
2023-05-13T05:43:01.530Z,13.1
2023-05-13T05:44:02.108Z,13.1
2023-05-13T05:45:01.727Z,13.1
2023-05-13T05:46:01.363Z,13.1
2023-05-13T05:47:01.896Z,13
2023-05-13T05:48:01.541Z,13
2023-05-13T05:49:02.074Z,13.2
2023-05-13T05:50:01.662Z,13.1
2023-05-13T05:51:01.272Z,12.9
2023-05-13T05:52:01.846Z,12.9
2023-05-13T05:53:01.449Z,13
2023-05-13T05:54:02.031Z,12.9
2023-05-13T05:55:01.634Z,13.1
2023-05-13T05:56:01.233Z,13.2
2023-05-13T05:57:01.822Z,13.3
2023-05-13T05:58:01.409Z,13.3
2023-05-13T05:59:01.996Z,13.3
2023-05-13T06:00:01.586Z,13.4
2023-05-13T06:01:01.183Z,13.3
2023-05-13T06:02:01.775Z,13.4
2023-05-13T06:03:01.460Z,13.3
2023-05-13T06:04:02.007Z,13.4
2023-05-13T06:05:01.672Z,13.4
2023-05-13T06:06:01.217Z,13.3
2023-05-13T06:07:01.820Z,13.3
2023-05-13T06:08:01.420Z,13.2
2023-05-13T06:09:02.009Z,13.2
2023-05-13T06:10:01.606Z,13.3
2023-05-13T06:11:01.214Z,13.3
2023-05-13T06:12:01.769Z,13.3
2023-05-13T06:13:01.505Z,13.3
2023-05-13T06:14:01.959Z,13.2
2023-05-13T06:15:01.546Z,13.1
2023-05-13T06:16:02.147Z,13.1
2023-05-13T06:17:01.797Z,13.2
2023-05-13T06:18:01.380Z,13.2
2023-05-13T06:19:01.987Z,13.1
2023-05-13T06:20:01.622Z,13.2
2023-05-13T06:21:01.184Z,13.3
2023-05-13T06:22:03.912Z,13.2
2023-05-13T06:23:01.368Z,13.2
2023-05-13T06:24:01.965Z,13.1
2023-05-13T06:25:01.592Z,13.2
2023-05-13T06:26:01.149Z,13.3
2023-05-13T06:27:01.743Z,13.3
2023-05-13T06:28:02.979Z,13.4
2023-05-13T06:29:01.758Z,13.5
2023-05-13T06:30:01.425Z,13.4
2023-05-13T06:31:02.054Z,13.3
2023-05-13T06:32:01.657Z,13.3
2023-05-13T06:33:02.608Z,13.3
2023-05-13T06:34:01.396Z,13.4
2023-05-13T06:35:02.002Z,13.6
2023-05-13T06:36:01.595Z,13.6
2023-05-13T06:37:01.178Z,13.7
2023-05-13T06:38:01.774Z,13.8
2023-05-13T06:39:01.393Z,13.8
2023-05-13T06:40:01.948Z,13.9
2023-05-13T06:41:01.536Z,13.9
2023-05-13T06:42:02.126Z,14
2023-05-13T06:43:01.751Z,14.1
2023-05-13T06:44:01.335Z,14.2
2023-05-13T06:45:02.083Z,14.3
2023-05-13T06:46:01.583Z,14.3
2023-05-13T06:47:01.178Z,14.4
2023-05-13T06:48:01.787Z,14.2
2023-05-13T06:49:01.408Z,14.3
2023-05-13T06:50:01.999Z,14.3
2023-05-13T06:51:01.591Z,14.4
2023-05-13T06:52:01.153Z,14.4
2023-05-13T06:53:01.779Z,14.4
2023-05-13T06:54:01.376Z,14.6
2023-05-13T06:55:01.964Z,14.8
2023-05-13T06:56:01.561Z,14.9
2023-05-13T06:57:01.147Z,14.8
2023-05-13T06:58:02.034Z,14.8
2023-05-13T06:59:01.391Z,14.6
2023-05-13T07:00:01.988Z,14.5
2023-05-13T07:01:01.641Z,14.5
2023-05-13T07:02:01.188Z,14.5
2023-05-13T07:03:01.803Z,14.3
2023-05-13T07:04:01.429Z,14.3
2023-05-13T07:05:01.991Z,14.3
2023-05-13T07:06:01.575Z,14.4
2023-05-13T07:07:01.163Z,14.3
2023-05-13T07:08:01.772Z,14.4
2023-05-13T07:09:02.689Z,14.5
2023-05-13T07:10:01.924Z,14.5
2023-05-13T07:11:01.516Z,14.5
2023-05-13T07:12:02.096Z,14.4
2023-05-13T07:13:01.691Z,14.5
2023-05-13T07:14:01.296Z,14.4
2023-05-13T07:15:01.930Z,14.4
2023-05-13T07:16:01.531Z,14.4
2023-05-13T07:17:02.196Z,14.7
2023-05-13T07:18:01.891Z,14.8
2023-05-13T07:19:01.361Z,14.9
2023-05-13T07:20:01.958Z,15
2023-05-13T07:21:01.556Z,15
2023-05-13T07:22:01.184Z,15.1
2023-05-13T07:23:01.744Z,14.9
2023-05-13T07:24:01.352Z,15.1
2023-05-13T07:25:01.978Z,15.3
2023-05-13T07:26:01.583Z,15.5
2023-05-13T07:27:01.178Z,15.4
2023-05-13T07:28:01.780Z,15.4
2023-05-13T07:29:01.374Z,15.3
2023-05-13T07:30:01.956Z,15.4
2023-05-13T07:31:01.577Z,15.6
2023-05-13T07:32:01.716Z,15.7
2023-05-13T07:33:01.380Z,15.7
2023-05-13T07:34:01.997Z,15.8
2023-05-13T07:35:01.602Z,15.9
2023-05-13T07:36:01.204Z,15.7
2023-05-13T07:37:01.772Z,15.8
2023-05-13T07:38:01.983Z,15.7
2023-05-13T07:39:02.151Z,15.8
2023-05-13T07:40:01.691Z,15.9
2023-05-13T07:41:01.261Z,15.8
2023-05-13T07:42:01.856Z,16
2023-05-13T07:43:01.451Z,16
2023-05-13T07:44:02.027Z,16
2023-05-13T07:45:01.632Z,16
2023-05-13T07:46:01.200Z,16.1
2023-05-13T07:47:01.804Z,16.2
2023-05-13T07:48:01.492Z,16.4
2023-05-13T07:49:02.031Z,16.3
2023-05-13T07:50:01.625Z,16.5
2023-05-13T07:51:01.209Z,16.5
2023-05-13T07:52:01.795Z,16.7
2023-05-13T07:53:01.405Z,16.8
2023-05-13T07:54:01.974Z,16.9
2023-05-13T07:55:01.598Z,17
2023-05-13T07:56:02.160Z,16.9
2023-05-13T07:57:01.763Z,16.9
2023-05-13T07:58:01.367Z,17
2023-05-13T07:59:01.943Z,17
2023-05-13T08:00:01.529Z,17
2023-05-13T08:01:02.128Z,17
2023-05-13T08:02:01.725Z,17.1
2023-05-13T08:03:01.461Z,17.1
2023-05-13T08:04:02.072Z,17.3
2023-05-13T08:05:01.657Z,17.4
2023-05-13T08:06:02.153Z,17.3
2023-05-13T08:07:01.737Z,17.3
2023-05-13T08:08:01.349Z,17.3
2023-05-13T08:09:01.924Z,17.3
2023-05-13T08:10:01.515Z,17.3
2023-05-13T08:11:02.103Z,17.4
2023-05-13T08:12:01.969Z,17.5
2023-05-13T08:13:01.372Z,17.4
2023-05-13T08:14:01.935Z,17.5
2023-05-13T08:15:01.529Z,17.5
2023-05-13T08:16:02.143Z,17.6
2023-05-13T08:17:01.776Z,17.7
2023-05-13T08:18:01.405Z,17.8
2023-05-13T08:19:01.929Z,17.8
2023-05-13T08:20:01.570Z,17.8
2023-05-13T08:21:02.179Z,17.8
2023-05-13T08:22:01.774Z,17.8
2023-05-13T08:23:01.431Z,17.8
2023-05-13T08:24:01.949Z,17.8
2023-05-13T08:25:01.564Z,17.9
2023-05-13T08:26:02.132Z,17.8
2023-05-13T08:27:01.720Z,17.9
2023-05-13T08:28:01.328Z,17.8
2023-05-13T08:29:01.919Z,18
2023-05-13T08:30:01.511Z,18
2023-05-13T08:31:02.100Z,18.1
2023-05-13T08:32:01.734Z,18.1
2023-05-13T08:33:01.373Z,18.2
2023-05-13T08:34:01.949Z,18.2
2023-05-13T08:35:01.541Z,18.3
2023-05-13T08:36:02.117Z,18.3
2023-05-13T08:37:01.745Z,18.3
2023-05-13T08:38:01.365Z,18.3
2023-05-13T08:39:01.918Z,18.3
2023-05-13T08:40:01.515Z,18.2
2023-05-13T08:41:02.120Z,18.2
2023-05-13T08:42:01.714Z,18.4
2023-05-13T08:43:01.315Z,18.5
2023-05-13T08:44:01.880Z,18.6
2023-05-13T08:45:01.471Z,18.6
2023-05-13T08:46:02.080Z,18.8
2023-05-13T08:47:01.688Z,18.7
2023-05-13T08:48:01.350Z,18.8
2023-05-13T08:49:01.848Z,18.7
2023-05-13T08:50:01.434Z,18.6
2023-05-13T08:51:02.051Z,18.7
2023-05-13T08:52:01.678Z,18.8
2023-05-13T08:53:01.301Z,18.9
2023-05-13T08:54:01.852Z,18.8
2023-05-13T08:55:01.446Z,18.9
2023-05-13T08:56:02.030Z,18.9
2023-05-13T08:57:01.646Z,18.9
2023-05-13T08:58:01.201Z,18.9
2023-05-13T08:59:01.800Z,19.1
2023-05-13T09:00:01.401Z,19.1
2023-05-13T09:01:02.004Z,19.2
2023-05-13T09:02:01.627Z,19.3
2023-05-13T09:03:01.218Z,19.4
2023-05-13T09:04:01.771Z,19.5
2023-05-13T09:05:01.402Z,19.4
2023-05-13T09:06:01.939Z,19.3
2023-05-13T09:07:01.553Z,19.2
2023-05-13T09:08:02.130Z,19.3
2023-05-13T09:09:01.743Z,19.2
2023-05-13T09:10:01.336Z,19.4
2023-05-13T09:11:01.914Z,19.6
2023-05-13T09:12:01.505Z,19.5
2023-05-13T09:13:02.117Z,19.7
2023-05-13T09:14:01.714Z,19.7
2023-05-13T09:15:01.379Z,19.8
2023-05-13T09:16:01.936Z,19.6
2023-05-13T09:17:01.550Z,19.6
2023-05-13T09:18:02.230Z,19.7
2023-05-13T09:19:01.944Z,19.7
2023-05-13T09:20:01.406Z,19.7
2023-05-13T09:21:01.976Z,19.8
2023-05-13T09:22:01.585Z,19.9
2023-05-13T09:23:01.735Z,19.9
2023-05-13T09:24:01.332Z,19.8
2023-05-13T09:25:01.954Z,19.8
2023-05-13T09:26:01.548Z,19.8
2023-05-13T09:27:02.160Z,19.8
2023-05-13T09:28:01.824Z,19.8
2023-05-13T09:29:01.376Z,19.7
2023-05-13T09:30:02.017Z,19.7
2023-05-13T09:31:01.644Z,19.8
2023-05-13T09:32:01.205Z,20
2023-05-13T09:33:01.835Z,20
2023-05-13T09:34:01.459Z,20
2023-05-13T09:35:02.039Z,20.1
2023-05-13T09:36:01.634Z,20
2023-05-13T09:37:01.218Z,19.8
2023-05-13T09:38:01.822Z,19.8
2023-05-13T09:39:01.427Z,20
2023-05-13T09:40:02.021Z,20
2023-05-13T09:41:01.648Z,19.9
2023-05-13T09:42:02.561Z,19.9
2023-05-13T09:43:01.730Z,19.9
2023-05-13T09:44:01.341Z,19.8
2023-05-13T09:45:01.899Z,19.8
2023-05-13T09:46:01.481Z,20
2023-05-13T09:47:02.170Z,20
2023-05-13T09:48:01.738Z,19.9
2023-05-13T09:49:01.328Z,19.9
2023-05-13T09:50:01.932Z,20
2023-05-13T09:51:01.540Z,20
2023-05-13T09:52:02.119Z,20
2023-05-13T09:53:01.707Z,20
2023-05-13T09:54:01.319Z,20
2023-05-13T09:55:01.902Z,20.1
2023-05-13T09:56:01.502Z,19.9
2023-05-13T09:57:02.148Z,20.1
2023-05-13T09:58:01.744Z,20.2
2023-05-13T09:59:01.361Z,20.2
2023-05-13T10:00:01.931Z,20.4
2023-05-13T10:01:01.543Z,20.3
2023-05-13T10:02:02.108Z,20.2
2023-05-13T10:03:01.744Z,20.3
2023-05-13T10:04:01.360Z,20.2
2023-05-13T10:05:01.878Z,20.3
2023-05-13T10:06:03.479Z,20.4
2023-05-13T10:07:02.012Z,20.4
2023-05-13T10:08:01.614Z,20.7
2023-05-13T10:09:02.209Z,20.7
2023-05-13T10:10:01.816Z,20.8
2023-05-13T10:11:01.409Z,20.8
2023-05-13T10:12:01.977Z,20.8
2023-05-13T10:13:01.586Z,20.8
2023-05-13T10:14:02.145Z,20.8
2023-05-13T10:15:01.757Z,20.7
2023-05-13T10:16:01.358Z,20.7
2023-05-13T10:17:01.972Z,20.7
2023-05-13T10:18:01.613Z,20.8
2023-05-13T10:19:02.194Z,20.9
2023-05-13T10:20:01.873Z,20.9
2023-05-13T10:21:01.431Z,21
2023-05-13T10:22:02.026Z,20.9
2023-05-13T10:23:01.629Z,20.8
2023-05-13T10:24:01.262Z,20.8
2023-05-13T10:25:01.795Z,20.9
2023-05-13T10:26:01.420Z,21
2023-05-13T10:27:01.969Z,20.9
2023-05-13T10:28:01.567Z,20.9
2023-05-13T10:29:02.171Z,20.9
2023-05-13T10:30:03.350Z,20.7
2023-05-13T10:31:01.278Z,20.7
2023-05-13T10:32:01.891Z,20.8
2023-05-13T10:33:01.590Z,20.7
2023-05-13T10:34:02.081Z,20.5
2023-05-13T10:35:01.697Z,20.6
2023-05-13T10:36:01.255Z,20.7
2023-05-13T10:37:01.832Z,20.8
2023-05-13T10:38:01.418Z,20.9
2023-05-13T10:39:02.006Z,20.9
2023-05-13T10:40:01.688Z,21
2023-05-13T10:41:01.271Z,21
2023-05-13T10:42:01.835Z,21.1
2023-05-13T10:43:01.426Z,21.1
2023-05-13T10:44:02.019Z,21.1
2023-05-13T10:45:01.633Z,21
2023-05-13T10:46:02.249Z,21
2023-05-13T10:47:01.864Z,21
2023-05-13T10:48:01.525Z,21.2
2023-05-13T10:49:02.021Z,21.1
2023-05-13T10:50:01.625Z,21
2023-05-13T10:51:02.224Z,21
2023-05-13T10:52:01.829Z,21
2023-05-13T10:53:01.417Z,20.9
2023-05-13T10:54:02.002Z,20.9
2023-05-13T10:55:01.604Z,21
2023-05-13T10:56:02.177Z,21
2023-05-13T10:57:01.784Z,21
2023-05-13T10:58:01.386Z,21
2023-05-13T10:59:01.957Z,21.1
2023-05-13T11:00:01.544Z,21.2
2023-05-13T11:01:02.154Z,21.3
2023-05-13T11:02:01.898Z,21.5
2023-05-13T11:03:01.428Z,21.6
2023-05-13T11:04:02.129Z,21.7
2023-05-13T11:05:01.651Z,21.6
2023-05-13T11:06:01.214Z,21.5
2023-05-13T11:07:01.823Z,21.4
2023-05-13T11:08:01.412Z,21.4
2023-05-13T11:09:01.997Z,21.3
2023-05-13T11:10:01.593Z,21.4
2023-05-13T11:11:02.172Z,21.5
2023-05-13T11:12:01.800Z,21.7
2023-05-13T11:13:01.413Z,21.8
2023-05-13T11:14:01.982Z,21.7
2023-05-13T11:15:01.572Z,21.8
2023-05-13T11:16:02.175Z,21.8
2023-05-13T11:17:01.836Z,21.6
2023-05-13T11:18:01.454Z,21.6
2023-05-13T11:19:02.015Z,21.5
2023-05-13T11:20:01.649Z,21.4
2023-05-13T11:21:01.653Z,21.5
2023-05-13T11:22:01.981Z,21.5
2023-05-13T11:23:01.484Z,21.6
2023-05-13T11:24:02.050Z,21.6
2023-05-13T11:25:01.705Z,21.8
2023-05-13T11:26:01.225Z,21.8
2023-05-13T11:27:01.811Z,21.7
2023-05-13T11:28:01.400Z,21.6
2023-05-13T11:29:02.014Z,21.6
2023-05-13T11:30:01.622Z,21.8
2023-05-13T11:31:02.206Z,21.7
2023-05-13T11:32:01.854Z,21.9
2023-05-13T11:33:01.502Z,21.9
2023-05-13T11:34:02.022Z,21.9
2023-05-13T11:35:01.632Z,21.9
2023-05-13T11:36:02.198Z,22
2023-05-13T11:37:01.788Z,21.9
2023-05-13T11:38:01.395Z,21.8
2023-05-13T11:39:01.962Z,21.9
2023-05-13T11:40:01.585Z,22
2023-05-13T11:41:02.133Z,22.1
2023-05-13T11:42:01.847Z,22.2
2023-05-13T11:43:01.345Z,22.3
2023-05-13T11:44:01.895Z,22.2
2023-05-13T11:45:01.521Z,22.3
2023-05-13T11:46:02.124Z,22.2
2023-05-13T11:47:01.728Z,22.2
2023-05-13T11:48:01.342Z,22.3
2023-05-13T11:49:01.909Z,22.4
2023-05-13T11:50:01.528Z,22.3
2023-05-13T11:51:02.080Z,22.4
2023-05-13T11:52:01.667Z,22.5
2023-05-13T11:53:01.282Z,22.5
2023-05-13T11:54:01.839Z,22.6
2023-05-13T11:55:01.461Z,22.7
2023-05-13T11:56:02.031Z,22.8
2023-05-13T11:57:01.619Z,22.7
2023-05-13T11:58:02.206Z,22.4
2023-05-13T11:59:01.803Z,22.3
2023-05-13T12:00:01.423Z,22.5
2023-05-13T12:01:01.989Z,22.6
2023-05-13T12:02:01.666Z,22.6
2023-05-13T12:03:02.351Z,22.4
2023-05-13T12:04:02.024Z,22.5
2023-05-13T12:05:01.620Z,22.4
2023-05-13T12:06:02.014Z,22.5
2023-05-13T12:07:01.610Z,22.7
2023-05-13T12:08:02.221Z,22.7
2023-05-13T12:09:01.822Z,22.5
2023-05-13T12:10:01.479Z,22.3
2023-05-13T12:11:02.012Z,22.1
2023-05-13T12:12:01.597Z,22
2023-05-13T12:13:02.207Z,21.8
2023-05-13T12:14:01.792Z,21.9
2023-05-13T12:15:01.392Z,22.3
2023-05-13T12:16:02.030Z,22.4
2023-05-13T12:17:01.637Z,22.5
2023-05-13T12:18:02.311Z,22.6
2023-05-13T12:19:01.975Z,22.6
2023-05-13T12:20:01.465Z,22.7
2023-05-13T12:21:02.063Z,22.8
2023-05-13T12:22:02.149Z,23
2023-05-13T12:23:01.618Z,22.8
2023-05-13T12:24:01.836Z,22.7
2023-05-13T12:25:01.488Z,22.7
2023-05-13T12:26:02.022Z,22.6
2023-05-13T12:27:01.632Z,22.7
2023-05-13T12:28:02.235Z,22.7
2023-05-13T12:29:01.838Z,22.6
2023-05-13T12:30:01.425Z,22.5
2023-05-13T12:31:02.047Z,22.3
2023-05-13T12:32:01.669Z,22.2
2023-05-13T12:33:01.312Z,22
2023-05-13T12:34:01.864Z,22.2
2023-05-13T12:35:01.459Z,22
2023-05-13T12:36:02.042Z,22.1
2023-05-13T12:37:01.713Z,22.2
2023-05-13T12:38:02.229Z,22.7
2023-05-13T12:39:01.850Z,23
2023-05-13T12:40:01.446Z,23.2
2023-05-13T12:41:02.039Z,23.4
2023-05-13T12:42:01.652Z,23.6
2023-05-13T12:43:02.241Z,23.4
2023-05-13T12:44:01.847Z,23.4
2023-05-13T12:45:01.438Z,23.6
2023-05-13T12:46:02.023Z,23.6
2023-05-13T12:47:01.756Z,23.3
2023-05-13T12:48:02.243Z,22.9
2023-05-13T12:49:01.865Z,22.8
2023-05-13T12:50:01.484Z,22.3
2023-05-13T12:51:02.461Z,22.3
2023-05-13T12:52:01.711Z,22.6
2023-05-13T12:53:01.343Z,22.8
2023-05-13T12:54:01.891Z,22.9
2023-05-13T12:55:01.512Z,23
2023-05-13T12:56:02.082Z,23
2023-05-13T12:57:01.682Z,23
2023-05-13T12:58:01.266Z,22.9
2023-05-13T12:59:01.849Z,23.2
2023-05-13T13:00:01.461Z,23.3
2023-05-13T13:01:02.081Z,23.3
2023-05-13T13:02:01.689Z,23.4
2023-05-13T13:03:01.367Z,23.6
2023-05-13T13:04:01.967Z,23.6
2023-05-13T13:05:01.521Z,23.7
2023-05-13T13:06:02.107Z,23.4
2023-05-13T13:07:01.704Z,23.4
2023-05-13T13:08:01.283Z,23.4
2023-05-13T13:09:01.899Z,23.7
2023-05-13T13:10:01.490Z,23.7
2023-05-13T13:11:02.093Z,23.6
2023-05-13T13:12:01.686Z,23.2
2023-05-13T13:13:01.268Z,23
2023-05-13T13:14:01.881Z,22.8
2023-05-13T13:15:01.485Z,22.6
2023-05-13T13:16:02.136Z,22.7
2023-05-13T13:17:01.730Z,22.7
2023-05-13T13:18:01.332Z,22.8
2023-05-13T13:19:02.165Z,22.5
2023-05-13T13:20:01.587Z,22.5
2023-05-13T13:21:02.150Z,22.4
2023-05-13T13:22:01.746Z,22.3
2023-05-13T13:23:01.319Z,22.5
2023-05-13T13:24:01.905Z,22.9
2023-05-13T13:25:01.535Z,23.1
2023-05-13T13:26:01.629Z,23.4
2023-05-13T13:27:01.228Z,23.8
2023-05-13T13:28:00.823Z,23.8
2023-05-13T13:29:01.439Z,23.9
2023-05-13T13:30:01.053Z,24.2
2023-05-13T13:31:01.617Z,24
2023-05-13T13:32:01.272Z,24.1
2023-05-13T13:33:00.866Z,23.9